sensor_id;sensor_type;location;lat;lon;timestamp;pressure;altitude;pressure_sealevel;temperature;humidity
23303;BME280;11820;48.738;9.092;2023-07-13T00:00:27;96279.63;;;21.64;100.00
23303;BME280;11820;48.738;9.092;2023-07-13T00:02:53;96276.94;;;21.49;100.00
23303;BME280;11820;48.738;9.092;2023-07-13T00:05:22;96270.91;;;21.48;100.00
23303;BME280;11820;48.738;9.092;2023-07-13T00:07:49;96267.09;;;21.10;100.00
23303;BME280;11820;48.738;9.092;2023-07-13T00:10:15;96266.88;;;21.21;100.00
23303;BME280;11820;48.738;9.092;2023-07-13T00:12:41;96268.16;;;21.04;100.00
23303;BME280;11820;48.738;9.092;2023-07-13T00:15:12;96268.38;;;20.97;100.00
23303;BME280;11820;48.738;9.092;2023-07-13T00:17:38;96262.03;;;20.83;100.00
23303;BME280;11820;48.738;9.092;2023-07-13T00:20:04;96269.84;;;20.78;100.00
23303;BME280;11820;48.738;9.092;2023-07-13T00:22:30;96270.31;;;20.65;100.00
23303;BME280;11820;48.738;9.092;2023-07-13T00:24:55;96271.50;;;20.84;100.00
23303;BME280;11820;48.738;9.092;2023-07-13T00:27:22;96273.38;;;20.47;100.00
23303;BME280;11820;48.738;9.092;2023-07-13T00:29:47;96268.75;;;20.64;100.00
23303;BME280;11820;48.738;9.092;2023-07-13T00:32:12;96268.13;;;20.47;100.00
23303;BME280;11820;48.738;9.092;2023-07-13T00:34:38;96266.63;;;20.61;100.00
23303;BME280;11820;48.738;9.092;2023-07-13T00:37:04;96264.84;;;20.72;100.00
23303;BME280;11820;48.738;9.092;2023-07-13T00:39:32;96275.03;;;20.58;100.00
23303;BME280;11820;48.738;9.092;2023-07-13T00:41:58;96272.34;;;20.53;100.00
23303;BME280;11820;48.738;9.092;2023-07-13T00:44:23;96269.84;;;20.73;100.00
23303;BME280;11820;48.738;9.092;2023-07-13T00:46:49;96272.47;;;20.73;100.00
23303;BME280;11820;48.738;9.092;2023-07-13T00:49:17;96276.88;;;20.63;100.00
23303;BME280;11820;48.738;9.092;2023-07-13T00:52:03;96276.63;;;20.59;100.00
23303;BME280;11820;48.738;9.092;2023-07-13T00:54:43;96272.97;;;20.70;100.00
23303;BME280;11820;48.738;9.092;2023-07-13T00:57:14;96282.75;;;20.80;100.00
23303;BME280;11820;48.738;9.092;2023-07-13T00:59:42;96283.59;;;20.85;100.00
23303;BME280;11820;48.738;9.092;2023-07-13T01:02:08;96283.75;;;20.69;100.00
23303;BME280;11820;48.738;9.092;2023-07-13T01:04:33;96281.53;;;20.97;100.00
23303;BME280;11820;48.738;9.092;2023-07-13T01:06:58;96287.81;;;20.91;100.00
23303;BME280;11820;48.738;9.092;2023-07-13T01:09:26;96285.50;;;21.05;100.00
23303;BME280;11820;48.738;9.092;2023-07-13T01:11:51;96286.28;;;21.05;100.00
23303;BME280;11820;48.738;9.092;2023-07-13T01:14:17;96292.13;;;21.12;100.00
23303;BME280;11820;48.738;9.092;2023-07-13T01:16:44;96283.19;;;21.18;99.65
23303;BME280;11820;48.738;9.092;2023-07-13T01:19:34;96288.88;;;20.95;100.00
23303;BME280;11820;48.738;9.092;2023-07-13T01:22:15;96294.69;;;20.97;100.00
23303;BME280;11820;48.738;9.092;2023-07-13T01:24:43;96283.41;;;21.12;99.98
23303;BME280;11820;48.738;9.092;2023-07-13T01:27:11;96285.28;;;21.16;99.53
23303;BME280;11820;48.738;9.092;2023-07-13T01:29:37;96285.78;;;21.08;99.46
23303;BME280;11820;48.738;9.092;2023-07-13T01:32:14;96293.22;;;20.70;99.70
23303;BME280;11820;48.738;9.092;2023-07-13T01:34:40;96285.72;;;20.88;100.00
23303;BME280;11820;48.738;9.092;2023-07-13T01:37:10;96291.00;;;20.98;99.91
23303;BME280;11820;48.738;9.092;2023-07-13T01:39:36;96299.78;;;20.67;99.23
23303;BME280;11820;48.738;9.092;2023-07-13T01:42:02;96291.50;;;20.85;100.00
23303;BME280;11820;48.738;9.092;2023-07-13T01:44:27;96302.53;;;20.87;100.00
23303;BME280;11820;48.738;9.092;2023-07-13T01:46:53;96300.97;;;20.91;100.00
23303;BME280;11820;48.738;9.092;2023-07-13T01:49:18;96299.09;;;20.87;100.00
23303;BME280;11820;48.738;9.092;2023-07-13T01:51:43;96294.84;;;20.81;100.00
23303;BME280;11820;48.738;9.092;2023-07-13T01:54:09;96294.81;;;20.71;100.00
23303;BME280;11820;48.738;9.092;2023-07-13T01:56:34;96297.53;;;20.86;100.00
23303;BME280;11820;48.738;9.092;2023-07-13T01:59:00;96295.06;;;20.74;100.00
23303;BME280;11820;48.738;9.092;2023-07-13T02:01:25;96299.91;;;20.87;100.00
23303;BME280;11820;48.738;9.092;2023-07-13T02:03:50;96301.38;;;20.73;99.45
23303;BME280;11820;48.738;9.092;2023-07-13T02:06:16;96302.09;;;20.64;99.50
23303;BME280;11820;48.738;9.092;2023-07-13T02:08:42;96304.19;;;20.62;99.22
23303;BME280;11820;48.738;9.092;2023-07-13T02:11:08;96307.41;;;20.69;99.88
23303;BME280;11820;48.738;9.092;2023-07-13T02:13:33;96302.50;;;20.82;100.00
23303;BME280;11820;48.738;9.092;2023-07-13T02:15:59;96306.94;;;20.77;100.00
23303;BME280;11820;48.738;9.092;2023-07-13T02:18:25;96303.06;;;20.43;100.00
23303;BME280;11820;48.738;9.092;2023-07-13T02:20:51;96302.97;;;20.79;100.00
23303;BME280;11820;48.738;9.092;2023-07-13T02:23:16;96304.59;;;20.80;100.00
23303;BME280;11820;48.738;9.092;2023-07-13T02:25:41;96308.16;;;20.59;98.54
23303;BME280;11820;48.738;9.092;2023-07-13T02:28:07;96307.63;;;20.62;98.72
23303;BME280;11820;48.738;9.092;2023-07-13T02:30:34;96311.91;;;20.32;99.15
23303;BME280;11820;48.738;9.092;2023-07-13T02:33:00;96311.31;;;20.61;98.77
23303;BME280;11820;48.738;9.092;2023-07-13T02:35:25;96310.81;;;20.64;98.83
23303;BME280;11820;48.738;9.092;2023-07-13T02:37:50;96316.84;;;20.65;99.63
23303;BME280;11820;48.738;9.092;2023-07-13T02:40:16;96319.19;;;20.56;99.67
23303;BME280;11820;48.738;9.092;2023-07-13T02:42:41;96319.66;;;20.53;100.00
23303;BME280;11820;48.738;9.092;2023-07-13T02:45:08;96325.41;;;20.45;100.00
23303;BME280;11820;48.738;9.092;2023-07-13T02:47:35;96321.47;;;20.48;100.00
23303;BME280;11820;48.738;9.092;2023-07-13T02:50:01;96311.69;;;20.38;100.00
23303;BME280;11820;48.738;9.092;2023-07-13T02:52:26;96316.72;;;20.45;100.00
23303;BME280;11820;48.738;9.092;2023-07-13T02:54:52;96315.94;;;20.44;100.00
23303;BME280;11820;48.738;9.092;2023-07-13T02:57:17;96323.28;;;20.42;100.00
23303;BME280;11820;48.738;9.092;2023-07-13T02:59:43;96320.16;;;20.50;100.00
23303;BME280;11820;48.738;9.092;2023-07-13T03:02:08;96317.66;;;20.29;100.00
23303;BME280;11820;48.738;9.092;2023-07-13T03:04:36;96322.56;;;20.15;100.00
23303;BME280;11820;48.738;9.092;2023-07-13T03:07:01;96324.47;;;20.25;100.00
23303;BME280;11820;48.738;9.092;2023-07-13T03:09:27;96321.09;;;20.29;100.00
23303;BME280;11820;48.738;9.092;2023-07-13T03:11:55;96324.44;;;20.20;100.00
23303;BME280;11820;48.738;9.092;2023-07-13T03:14:24;96335.44;;;20.17;100.00
23303;BME280;11820;48.738;9.092;2023-07-13T03:16:49;96327.38;;;20.28;100.00
23303;BME280;11820;48.738;9.092;2023-07-13T03:19:15;96336.34;;;20.32;100.00
23303;BME280;11820;48.738;9.092;2023-07-13T03:21:40;96334.25;;;20.29;100.00
23303;BME280;11820;48.738;9.092;2023-07-13T03:24:06;96335.66;;;20.47;99.57
23303;BME280;11820;48.738;9.092;2023-07-13T03:26:31;96330.63;;;20.40;100.00
23303;BME280;11820;48.738;9.092;2023-07-13T03:28:57;96344.00;;;20.39;100.00
23303;BME280;11820;48.738;9.092;2023-07-13T03:31:33;96341.47;;;20.54;100.00
23303;BME280;11820;48.738;9.092;2023-07-13T03:33:59;96352.13;;;20.32;100.00
23303;BME280;11820;48.738;9.092;2023-07-13T03:36:28;96356.50;;;20.22;100.00
23303;BME280;11820;48.738;9.092;2023-07-13T03:38:57;96347.66;;;20.38;100.00
23303;BME280;11820;48.738;9.092;2023-07-13T03:41:23;96354.88;;;19.89;100.00
23303;BME280;11820;48.738;9.092;2023-07-13T03:43:49;96362.53;;;20.22;100.00
23303;BME280;11820;48.738;9.092;2023-07-13T03:46:15;96358.31;;;20.21;100.00
23303;BME280;11820;48.738;9.092;2023-07-13T03:48:43;96360.44;;;20.24;100.00
23303;BME280;11820;48.738;9.092;2023-07-13T03:51:10;96357.56;;;19.99;100.00
23303;BME280;11820;48.738;9.092;2023-07-13T03:53:40;96355.13;;;20.14;100.00
23303;BME280;11820;48.738;9.092;2023-07-13T03:56:06;96358.25;;;20.11;100.00
23303;BME280;11820;48.738;9.092;2023-07-13T03:58:34;96356.06;;;20.03;100.00
23303;BME280;11820;48.738;9.092;2023-07-13T04:01:01;96367.69;;;20.07;100.00
23303;BME280;11820;48.738;9.092;2023-07-13T04:03:27;96366.19;;;20.21;100.00
23303;BME280;11820;48.738;9.092;2023-07-13T04:05:56;96371.81;;;20.03;100.00
23303;BME280;11820;48.738;9.092;2023-07-13T04:08:29;96364.97;;;20.02;100.00
23303;BME280;11820;48.738;9.092;2023-07-13T04:10:55;96372.56;;;19.99;100.00
23303;BME280;11820;48.738;9.092;2023-07-13T04:13:22;96369.44;;;20.02;100.00
23303;BME280;11820;48.738;9.092;2023-07-13T04:15:48;96374.88;;;19.95;100.00
23303;BME280;11820;48.738;9.092;2023-07-13T04:18:13;96377.16;;;19.61;100.00
23303;BME280;11820;48.738;9.092;2023-07-13T04:20:38;96377.19;;;19.66;100.00
23303;BME280;11820;48.738;9.092;2023-07-13T04:23:04;96388.50;;;19.92;100.00
23303;BME280;11820;48.738;9.092;2023-07-13T04:25:29;96393.25;;;19.95;100.00
23303;BME280;11820;48.738;9.092;2023-07-13T04:27:54;96387.41;;;19.88;100.00
23303;BME280;11820;48.738;9.092;2023-07-13T04:30:20;96385.16;;;19.75;100.00
23303;BME280;11820;48.738;9.092;2023-07-13T04:32:46;96380.69;;;19.71;100.00
23303;BME280;11820;48.738;9.092;2023-07-13T04:35:11;96386.38;;;19.89;100.00
23303;BME280;11820;48.738;9.092;2023-07-13T04:37:38;96388.44;;;19.87;100.00
23303;BME280;11820;48.738;9.092;2023-07-13T04:40:03;96382.34;;;19.82;100.00
23303;BME280;11820;48.738;9.092;2023-07-13T04:42:29;96386.91;;;19.91;100.00
23303;BME280;11820;48.738;9.092;2023-07-13T04:44:55;96392.00;;;19.76;100.00
23303;BME280;11820;48.738;9.092;2023-07-13T04:47:20;96388.66;;;19.81;100.00
23303;BME280;11820;48.738;9.092;2023-07-13T04:49:46;96386.38;;;19.89;100.00
23303;BME280;11820;48.738;9.092;2023-07-13T04:52:11;96394.84;;;19.96;100.00
23303;BME280;11820;48.738;9.092;2023-07-13T04:54:37;96389.03;;;19.94;100.00
23303;BME280;11820;48.738;9.092;2023-07-13T04:57:04;96387.41;;;19.88;100.00
23303;BME280;11820;48.738;9.092;2023-07-13T04:59:34;96396.41;;;19.97;100.00
23303;BME280;11820;48.738;9.092;2023-07-13T05:01:59;96401.13;;;19.95;100.00
23303;BME280;11820;48.738;9.092;2023-07-13T05:04:24;96399.72;;;20.09;100.00
23303;BME280;11820;48.738;9.092;2023-07-13T05:06:50;96389.47;;;20.08;100.00
23303;BME280;11820;48.738;9.092;2023-07-13T05:09:15;96397.97;;;19.93;100.00
23303;BME280;11820;48.738;9.092;2023-07-13T05:11:40;96397.19;;;20.19;100.00
23303;BME280;11820;48.738;9.092;2023-07-13T05:14:06;96395.25;;;20.41;100.00
23303;BME280;11820;48.738;9.092;2023-07-13T05:16:31;96396.84;;;20.42;100.00
23303;BME280;11820;48.738;9.092;2023-07-13T05:18:57;96398.03;;;20.56;100.00
23303;BME280;11820;48.738;9.092;2023-07-13T05:21:23;96401.63;;;20.50;100.00
23303;BME280;11820;48.738;9.092;2023-07-13T05:23:49;96399.91;;;20.29;100.00
23303;BME280;11820;48.738;9.092;2023-07-13T05:26:15;96399.19;;;20.39;100.00
23303;BME280;11820;48.738;9.092;2023-07-13T05:28:40;96401.00;;;20.33;100.00
23303;BME280;11820;48.738;9.092;2023-07-13T05:31:07;96401.97;;;20.27;100.00
23303;BME280;11820;48.738;9.092;2023-07-13T05:33:33;96401.91;;;20.49;100.00
23303;BME280;11820;48.738;9.092;2023-07-13T05:35:58;96408.09;;;20.38;100.00
23303;BME280;11820;48.738;9.092;2023-07-13T05:38:25;96410.13;;;20.57;100.00
23303;BME280;11820;48.738;9.092;2023-07-13T05:40:54;96402.09;;;20.79;100.00
23303;BME280;11820;48.738;9.092;2023-07-13T05:43:21;96417.53;;;20.65;100.00
23303;BME280;11820;48.738;9.092;2023-07-13T05:45:47;96410.78;;;20.79;100.00
23303;BME280;11820;48.738;9.092;2023-07-13T05:48:12;96410.41;;;20.66;100.00
23303;BME280;11820;48.738;9.092;2023-07-13T05:50:37;96413.63;;;20.73;100.00
23303;BME280;11820;48.738;9.092;2023-07-13T05:53:03;96416.50;;;20.71;100.00
23303;BME280;11820;48.738;9.092;2023-07-13T05:55:28;96410.22;;;20.72;100.00
23303;BME280;11820;48.738;9.092;2023-07-13T05:57:54;96411.34;;;20.81;100.00
23303;BME280;11820;48.738;9.092;2023-07-13T06:00:19;96421.28;;;20.79;100.00
23303;BME280;11820;48.738;9.092;2023-07-13T06:02:44;96417.69;;;20.85;100.00
23303;BME280;11820;48.738;9.092;2023-07-13T06:05:10;96424.47;;;20.81;100.00
23303;BME280;11820;48.738;9.092;2023-07-13T06:07:35;96432.00;;;20.68;100.00
23303;BME280;11820;48.738;9.092;2023-07-13T06:10:01;96431.41;;;20.61;100.00
23303;BME280;11820;48.738;9.092;2023-07-13T06:12:26;96436.09;;;20.85;100.00
23303;BME280;11820;48.738;9.092;2023-07-13T06:14:52;96429.06;;;20.96;100.00
23303;BME280;11820;48.738;9.092;2023-07-13T06:17:17;96420.69;;;20.99;100.00
23303;BME280;11820;48.738;9.092;2023-07-13T06:19:43;96437.16;;;20.84;100.00
23303;BME280;11820;48.738;9.092;2023-07-13T06:22:08;96441.25;;;20.75;94.26
23303;BME280;11820;48.738;9.092;2023-07-13T06:24:33;96440.53;;;20.53;93.94
23303;BME280;11820;48.738;9.092;2023-07-13T06:26:59;96451.72;;;20.70;94.27
23303;BME280;11820;48.738;9.092;2023-07-13T06:29:24;96450.66;;;20.66;94.85
23303;BME280;11820;48.738;9.092;2023-07-13T06:31:49;96455.66;;;20.68;96.01
23303;BME280;11820;48.738;9.092;2023-07-13T06:34:15;96452.75;;;20.96;94.97
23303;BME280;11820;48.738;9.092;2023-07-13T06:36:40;96457.19;;;20.95;95.38
23303;BME280;11820;48.738;9.092;2023-07-13T06:39:06;96464.31;;;20.95;96.91
23303;BME280;11820;48.738;9.092;2023-07-13T06:41:32;96458.66;;;21.18;95.81
23303;BME280;11820;48.738;9.092;2023-07-13T06:43:58;96459.22;;;21.20;94.64
23303;BME280;11820;48.738;9.092;2023-07-13T06:46:23;96467.09;;;21.20;93.16
23303;BME280;11820;48.738;9.092;2023-07-13T06:48:49;96464.16;;;21.11;92.27
23303;BME280;11820;48.738;9.092;2023-07-13T06:51:14;96461.06;;;21.24;93.33
23303;BME280;11820;48.738;9.092;2023-07-13T06:53:40;96466.28;;;21.14;90.40
23303;BME280;11820;48.738;9.092;2023-07-13T06:56:05;96466.16;;;20.99;91.33
23303;BME280;11820;48.738;9.092;2023-07-13T06:58:31;96466.50;;;21.13;91.76
23303;BME280;11820;48.738;9.092;2023-07-13T07:00:56;96464.72;;;21.18;91.11
23303;BME280;11820;48.738;9.092;2023-07-13T07:03:21;96466.00;;;21.16;91.02
23303;BME280;11820;48.738;9.092;2023-07-13T07:05:47;96471.03;;;21.22;89.68
23303;BME280;11820;48.738;9.092;2023-07-13T07:08:12;96466.84;;;21.21;87.85
23303;BME280;11820;48.738;9.092;2023-07-13T07:10:38;96474.44;;;21.18;88.95
23303;BME280;11820;48.738;9.092;2023-07-13T07:13:03;96472.50;;;21.03;88.45
23303;BME280;11820;48.738;9.092;2023-07-13T07:15:29;96479.09;;;21.06;87.87
23303;BME280;11820;48.738;9.092;2023-07-13T07:17:55;96472.03;;;21.06;88.88
23303;BME280;11820;48.738;9.092;2023-07-13T07:20:20;96468.94;;;21.24;90.25
23303;BME280;11820;48.738;9.092;2023-07-13T07:22:46;96472.22;;;21.46;89.98
23303;BME280;11820;48.738;9.092;2023-07-13T07:25:12;96473.53;;;21.43;89.17
23303;BME280;11820;48.738;9.092;2023-07-13T07:27:37;96470.72;;;21.60;89.02
23303;BME280;11820;48.738;9.092;2023-07-13T07:30:03;96473.56;;;21.48;86.12
23303;BME280;11820;48.738;9.092;2023-07-13T07:32:29;96473.97;;;21.26;83.61
23303;BME280;11820;48.738;9.092;2023-07-13T07:34:56;96465.91;;;21.42;83.85
23303;BME280;11820;48.738;9.092;2023-07-13T07:37:22;96468.03;;;21.50;82.57
23303;BME280;11820;48.738;9.092;2023-07-13T07:39:47;96458.16;;;21.67;82.14
23303;BME280;11820;48.738;9.092;2023-07-13T07:42:13;96458.47;;;21.85;82.57
23303;BME280;11820;48.738;9.092;2023-07-13T07:44:40;96467.13;;;21.76;83.92
23303;BME280;11820;48.738;9.092;2023-07-13T07:47:06;96471.09;;;21.73;84.75
23303;BME280;11820;48.738;9.092;2023-07-13T07:49:32;96470.97;;;21.58;84.89
23303;BME280;11820;48.738;9.092;2023-07-13T07:51:57;96472.41;;;21.81;84.84
23303;BME280;11820;48.738;9.092;2023-07-13T07:54:22;96471.63;;;21.80;84.24
23303;BME280;11820;48.738;9.092;2023-07-13T07:56:48;96472.97;;;21.83;81.74
23303;BME280;11820;48.738;9.092;2023-07-13T07:59:13;96477.81;;;21.59;78.07
23303;BME280;11820;48.738;9.092;2023-07-13T08:01:39;96473.94;;;21.67;79.01
23303;BME280;11820;48.738;9.092;2023-07-13T08:04:04;96483.84;;;21.55;78.85
23303;BME280;11820;48.738;9.092;2023-07-13T08:06:31;96476.59;;;21.77;78.79
23303;BME280;11820;48.738;9.092;2023-07-13T08:08:58;96477.22;;;21.99;79.04
23303;BME280;11820;48.738;9.092;2023-07-13T08:11:24;96482.94;;;21.81;78.40
23303;BME280;11820;48.738;9.092;2023-07-13T08:13:50;96488.25;;;21.91;78.80
23303;BME280;11820;48.738;9.092;2023-07-13T08:16:15;96475.88;;;21.91;75.38
23303;BME280;11820;48.738;9.092;2023-07-13T08:18:41;96486.72;;;22.05;74.98
23303;BME280;11820;48.738;9.092;2023-07-13T08:21:07;96483.31;;;22.09;76.14
23303;BME280;11820;48.738;9.092;2023-07-13T08:23:33;96483.00;;;21.91;74.92
23303;BME280;11820;48.738;9.092;2023-07-13T08:25:58;96471.72;;;22.20;75.66
23303;BME280;11820;48.738;9.092;2023-07-13T08:28:24;96478.34;;;22.33;74.92
23303;BME280;11820;48.738;9.092;2023-07-13T08:30:49;96487.50;;;22.05;nan
23303;BME280;11820;48.738;9.092;2023-07-13T08:33:16;96478.84;;;22.20;73.16
23303;BME280;11820;48.738;9.092;2023-07-13T08:35:42;96479.84;;;21.99;73.24
23303;BME280;11820;48.738;9.092;2023-07-13T08:38:07;96479.09;;;22.18;73.98
23303;BME280;11820;48.738;9.092;2023-07-13T08:40:33;96486.75;;;22.10;72.46
23303;BME280;11820;48.738;9.092;2023-07-13T08:42:59;96479.91;;;22.19;73.38
23303;BME280;11820;48.738;9.092;2023-07-13T08:45:47;96487.59;;;22.40;73.19
23303;BME280;11820;48.738;9.092;2023-07-13T08:48:27;96489.22;;;22.66;72.58
23303;BME280;11820;48.738;9.092;2023-07-13T08:51:04;96482.63;;;22.59;72.92
23303;BME280;11820;48.738;9.092;2023-07-13T08:53:38;96483.16;;;22.71;72.09
23303;BME280;11820;48.738;9.092;2023-07-13T08:56:09;96486.06;;;22.54;71.58
23303;BME280;11820;48.738;9.092;2023-07-13T08:58:36;96480.53;;;22.86;71.56
23303;BME280;11820;48.738;9.092;2023-07-13T09:01:21;96487.63;;;22.65;71.30
23303;BME280;11820;48.738;9.092;2023-07-13T09:06:31;96481.03;;;22.83;71.24
23303;BME280;11820;48.738;9.092;2023-07-13T09:09:02;96484.47;;;23.03;71.76
23303;BME280;11820;48.738;9.092;2023-07-13T09:11:48;96492.38;;;22.48;71.39
23303;BME280;11820;48.738;9.092;2023-07-13T09:16:55;96479.97;;;23.28;70.72
23303;BME280;11820;48.738;9.092;2023-07-13T09:19:27;96486.31;;;23.08;70.13
23303;BME280;11820;48.738;9.092;2023-07-13T09:21:54;96486.31;;;23.37;69.63
23303;BME280;11820;48.738;9.092;2023-07-13T09:24:54;96485.75;;;23.40;69.41
23303;BME280;11820;48.738;9.092;2023-07-13T09:27:30;96487.84;;;23.48;68.77
23303;BME280;11820;48.738;9.092;2023-07-13T09:30:21;96491.28;;;23.54;68.39
23303;BME280;11820;48.738;9.092;2023-07-13T09:32:52;96487.06;;;23.38;67.79
23303;BME280;11820;48.738;9.092;2023-07-13T09:35:25;96488.41;;;23.40;67.51
23303;BME280;11820;48.738;9.092;2023-07-13T09:37:59;96483.91;;;23.41;66.85
23303;BME280;11820;48.738;9.092;2023-07-13T09:40:33;96487.09;;;23.33;66.23
23303;BME280;11820;48.738;9.092;2023-07-13T09:43:01;96486.47;;;23.66;66.54
23303;BME280;11820;48.738;9.092;2023-07-13T09:45:30;96480.94;;;23.62;67.33
23303;BME280;11820;48.738;9.092;2023-07-13T09:48:15;96487.25;;;23.71;68.47
23303;BME280;11820;48.738;9.092;2023-07-13T09:50:42;96485.41;;;23.67;68.86
23303;BME280;11820;48.738;9.092;2023-07-13T09:53:12;96489.16;;;23.46;67.17
23303;BME280;11820;48.738;9.092;2023-07-13T09:55:39;96490.72;;;23.57;66.98
23303;BME280;11820;48.738;9.092;2023-07-13T09:58:13;96478.22;;;23.92;67.35
23303;BME280;11820;48.738;9.092;2023-07-13T10:00:40;96487.41;;;24.05;67.27
23303;BME280;11820;48.738;9.092;2023-07-13T10:03:16;96480.81;;;23.97;65.73
23303;BME280;11820;48.738;9.092;2023-07-13T10:05:46;96475.06;;;23.90;66.28
23303;BME280;11820;48.738;9.092;2023-07-13T10:08:17;96479.25;;;23.96;66.49
23303;BME280;11820;48.738;9.092;2023-07-13T10:10:44;96479.72;;;24.03;66.05
23303;BME280;11820;48.738;9.092;2023-07-13T10:13:27;96482.47;;;23.88;65.54
23303;BME280;11820;48.738;9.092;2023-07-13T10:15:54;96479.69;;;24.08;65.01
23303;BME280;11820;48.738;9.092;2023-07-13T10:18:22;96474.25;;;24.38;65.00
23303;BME280;11820;48.738;9.092;2023-07-13T10:20:49;96480.53;;;24.52;64.18
23303;BME280;11820;48.738;9.092;2023-07-13T10:23:25;96491.09;;;24.52;64.05
23303;BME280;11820;48.738;9.092;2023-07-13T10:25:52;96485.50;;;24.15;62.14
23303;BME280;11820;48.738;9.092;2023-07-13T10:28:31;96481.63;;;24.41;62.31
23303;BME280;11820;48.738;9.092;2023-07-13T10:30:59;96474.03;;;24.73;62.65
23303;BME280;11820;48.738;9.092;2023-07-13T10:33:25;96469.19;;;24.80;62.83
23303;BME280;11820;48.738;9.092;2023-07-13T10:35:58;96479.47;;;24.53;63.32
23303;BME280;11820;48.738;9.092;2023-07-13T10:38:27;96481.25;;;24.19;63.07
23303;BME280;11820;48.738;9.092;2023-07-13T10:41:01;96483.41;;;24.12;62.86
23303;BME280;11820;48.738;9.092;2023-07-13T10:43:33;96482.44;;;24.37;63.86
23303;BME280;11820;48.738;9.092;2023-07-13T10:46:03;96477.38;;;24.45;64.13
23303;BME280;11820;48.738;9.092;2023-07-13T10:48:31;96481.09;;;24.44;62.61
23303;BME280;11820;48.738;9.092;2023-07-13T10:51:00;96475.22;;;24.52;63.05
23303;BME280;11820;48.738;9.092;2023-07-13T10:53:31;96487.41;;;24.48;61.47
23303;BME280;11820;48.738;9.092;2023-07-13T10:56:05;96470.78;;;24.81;62.53
23303;BME280;11820;48.738;9.092;2023-07-13T10:58:41;96473.38;;;25.19;61.02
23303;BME280;11820;48.738;9.092;2023-07-13T11:01:12;96471.31;;;25.11;61.41
23303;BME280;11820;48.738;9.092;2023-07-13T11:08:56;96465.72;;;25.13;58.84
23303;BME280;11820;48.738;9.092;2023-07-13T11:18:44;96454.75;;;25.53;60.90
23303;BME280;11820;48.738;9.092;2023-07-13T11:21:18;96447.47;;;25.40;61.39
23303;BME280;11820;48.738;9.092;2023-07-13T11:23:45;96444.88;;;25.35;61.40
23303;BME280;11820;48.738;9.092;2023-07-13T11:31:52;96445.16;;;25.05;61.54
23303;BME280;11820;48.738;9.092;2023-07-13T11:34:26;96435.88;;;25.59;62.05
23303;BME280;11820;48.738;9.092;2023-07-13T11:36:52;96439.22;;;25.88;61.63
23303;BME280;11820;48.738;9.092;2023-07-13T11:39:21;96448.03;;;25.84;58.31
23303;BME280;11820;48.738;9.092;2023-07-13T11:41:50;96445.41;;;26.02;56.52
23303;BME280;11820;48.738;9.092;2023-07-13T11:44:21;96438.13;;;26.31;55.10
23303;BME280;11820;48.738;9.092;2023-07-13T11:46:49;96443.97;;;25.68;57.58
23303;BME280;11820;48.738;9.092;2023-07-13T11:49:17;96444.25;;;25.19;59.79
23303;BME280;11820;48.738;9.092;2023-07-13T11:51:44;96449.53;;;25.19;60.17
23303;BME280;11820;48.738;9.092;2023-07-13T11:54:33;96444.81;;;24.83;59.73
23303;BME280;11820;48.738;9.092;2023-07-13T11:57:02;96447.28;;;25.03;60.59
23303;BME280;11820;48.738;9.092;2023-07-13T11:59:32;96455.19;;;25.08;60.82
23303;BME280;11820;48.738;9.092;2023-07-13T12:01:58;96450.06;;;25.68;60.44
23303;BME280;11820;48.738;9.092;2023-07-13T12:04:31;96446.78;;;26.18;60.13
23303;BME280;11820;48.738;9.092;2023-07-13T12:07:04;96450.66;;;26.26;58.70
23303;BME280;11820;48.738;9.092;2023-07-13T12:09:30;96441.03;;;25.93;57.75
23303;BME280;11820;48.738;9.092;2023-07-13T12:11:57;96446.00;;;26.36;57.32
23303;BME280;11820;48.738;9.092;2023-07-13T12:14:23;96437.50;;;26.71;57.51
23303;BME280;11820;48.738;9.092;2023-07-13T12:16:51;96443.84;;;26.57;55.39
23303;BME280;11820;48.738;9.092;2023-07-13T12:19:26;96440.41;;;26.56;56.22
23303;BME280;11820;48.738;9.092;2023-07-13T12:21:54;96444.34;;;26.40;56.81
23303;BME280;11820;48.738;9.092;2023-07-13T12:24:21;96445.28;;;26.31;56.15
23303;BME280;11820;48.738;9.092;2023-07-13T12:27:02;96444.13;;;26.18;55.37
23303;BME280;11820;48.738;9.092;2023-07-13T12:29:29;96446.13;;;26.08;55.16
23303;BME280;11820;48.738;9.092;2023-07-13T12:31:54;96453.16;;;25.99;54.77
23303;BME280;11820;48.738;9.092;2023-07-13T12:34:23;96447.75;;;26.41;55.78
23303;BME280;11820;48.738;9.092;2023-07-13T12:36:52;96444.34;;;26.59;55.87
23303;BME280;11820;48.738;9.092;2023-07-13T12:39:22;96430.56;;;27.20;55.44
23303;BME280;11820;48.738;9.092;2023-07-13T12:41:50;96423.63;;;27.06;54.88
23303;BME280;11820;48.738;9.092;2023-07-13T12:44:18;96444.25;;;27.14;53.76
23303;BME280;11820;48.738;9.092;2023-07-13T12:46:58;96438.63;;;27.15;55.35
23303;BME280;11820;48.738;9.092;2023-07-13T12:49:27;96441.44;;;27.05;54.65
23303;BME280;11820;48.738;9.092;2023-07-13T12:51:59;96440.94;;;27.03;54.68
23303;BME280;11820;48.738;9.092;2023-07-13T12:54:24;96435.84;;;27.07;55.25
23303;BME280;11820;48.738;9.092;2023-07-13T12:56:52;96441.19;;;27.20;54.42
23303;BME280;11820;48.738;9.092;2023-07-13T12:59:20;96441.19;;;27.20;53.70
23303;BME280;11820;48.738;9.092;2023-07-13T13:01:46;96442.59;;;27.45;52.28
23303;BME280;11820;48.738;9.092;2023-07-13T13:04:14;96443.25;;;28.04;53.10
23303;BME280;11820;48.738;9.092;2023-07-13T13:06:40;96443.91;;;28.23;53.15
23303;BME280;11820;48.738;9.092;2023-07-13T13:09:11;96443.78;;;27.52;51.69
23303;BME280;11820;48.738;9.092;2023-07-13T13:11:39;96441.81;;;27.44;51.54
23303;BME280;11820;48.738;9.092;2023-07-13T13:14:05;96447.97;;;26.81;51.62
23303;BME280;11820;48.738;9.092;2023-07-13T13:16:33;96441.69;;;27.22;52.67
23303;BME280;11820;48.738;9.092;2023-07-13T13:19:12;96442.97;;;27.25;51.38
23303;BME280;11820;48.738;9.092;2023-07-13T13:21:38;96438.47;;;27.52;50.89